sensor_id;sensor_type;location;lat;lon;timestamp;pressure;altitude;pressure_sealevel;temperature;humidity
20630;BME280;17386;43.846;25.950;2023-07-13T00:00:07;101069.50;;;28.78;69.14
20630;BME280;17386;43.846;25.950;2023-07-13T00:02:38;101065.06;;;28.77;69.36
20630;BME280;17386;43.846;25.950;2023-07-13T00:05:06;101070.66;;;28.75;69.40
20630;BME280;17386;43.846;25.950;2023-07-13T00:07:34;101069.97;;;28.73;69.63
20630;BME280;17386;43.846;25.950;2023-07-13T00:10:02;101067.06;;;28.67;69.90
20630;BME280;17386;43.846;25.950;2023-07-13T00:12:31;101075.03;;;28.60;70.11
20630;BME280;17386;43.846;25.950;2023-07-13T00:15:01;101070.09;;;28.55;70.21
20630;BME280;17386;43.846;25.950;2023-07-13T00:17:28;101065.47;;;28.56;70.53
20630;BME280;17386;43.846;25.950;2023-07-13T00:19:55;101064.75;;;28.54;70.51
20630;BME280;17386;43.846;25.950;2023-07-13T00:22:23;101063.06;;;28.53;70.96
20630;BME280;17386;43.846;25.950;2023-07-13T00:24:53;101057.75;;;28.51;71.17
20630;BME280;17386;43.846;25.950;2023-07-13T00:27:23;101054.19;;;28.51;71.34
20630;BME280;17386;43.846;25.950;2023-07-13T00:29:50;101047.47;;;28.45;71.60
20630;BME280;17386;43.846;25.950;2023-07-13T00:32:16;101062.16;;;28.44;71.88
20630;BME280;17386;43.846;25.950;2023-07-13T00:34:43;101050.22;;;28.45;71.95
20630;BME280;17386;43.846;25.950;2023-07-13T00:37:09;101038.25;;;28.46;71.87
20630;BME280;17386;43.846;25.950;2023-07-13T00:39:38;101045.44;;;28.47;71.74
20630;BME280;17386;43.846;25.950;2023-07-13T00:42:05;101046.16;;;28.49;72.03
20630;BME280;17386;43.846;25.950;2023-07-13T00:44:32;101040.81;;;28.48;72.21
20630;BME280;17386;43.846;25.950;2023-07-13T00:46:59;101049.19;;;28.46;72.05
20630;BME280;17386;43.846;25.950;2023-07-13T00:49:27;101033.66;;;28.47;72.51
20630;BME280;17386;43.846;25.950;2023-07-13T00:52:06;101038.09;;;28.48;72.83
20630;BME280;17386;43.846;25.950;2023-07-13T00:54:43;101036.19;;;28.40;73.21
20630;BME280;17386;43.846;25.950;2023-07-13T00:57:19;101032.75;;;28.38;73.74
20630;BME280;17386;43.846;25.950;2023-07-13T00:59:50;101034.81;;;28.36;73.96
20630;BME280;17386;43.846;25.950;2023-07-13T01:02:19;101032.69;;;28.30;74.45
20630;BME280;17386;43.846;25.950;2023-07-13T01:04:46;101037.94;;;28.23;75.26
20630;BME280;17386;43.846;25.950;2023-07-13T01:07:13;101044.53;;;28.13;76.05
20630;BME280;17386;43.846;25.950;2023-07-13T01:09:40;101038.56;;;28.09;76.28
20630;BME280;17386;43.846;25.950;2023-07-13T01:12:07;101038.84;;;28.06;76.64
20630;BME280;17386;43.846;25.950;2023-07-13T01:14:34;101031.81;;;27.95;76.89
20630;BME280;17386;43.846;25.950;2023-07-13T01:17:00;101033.56;;;28.04;76.94
20630;BME280;17386;43.846;25.950;2023-07-13T01:22:04;101035.78;;;28.01;78.04
20630;BME280;17386;43.846;25.950;2023-07-13T01:24:36;101036.25;;;27.96;78.08
20630;BME280;17386;43.846;25.950;2023-07-13T01:27:03;101037.56;;;27.92;78.69
20630;BME280;17386;43.846;25.950;2023-07-13T01:29:33;101044.47;;;27.78;79.47
20630;BME280;17386;43.846;25.950;2023-07-13T01:31:59;101049.00;;;27.70;79.75
20630;BME280;17386;43.846;25.950;2023-07-13T01:34:27;101049.31;;;27.67;79.87
20630;BME280;17386;43.846;25.950;2023-07-13T01:36:54;101069.56;;;27.64;80.12
20630;BME280;17386;43.846;25.950;2023-07-13T01:39:22;101064.38;;;27.53;80.83
20630;BME280;17386;43.846;25.950;2023-07-13T01:41:49;101054.69;;;27.59;81.65
20630;BME280;17386;43.846;25.950;2023-07-13T01:44:16;101059.66;;;27.63;83.21
20630;BME280;17386;43.846;25.950;2023-07-13T01:46:42;101053.69;;;27.60;84.44
20630;BME280;17386;43.846;25.950;2023-07-13T01:49:09;101054.00;;;27.57;85.52
20630;BME280;17386;43.846;25.950;2023-07-13T01:51:36;101053.22;;;27.46;86.16
20630;BME280;17386;43.846;25.950;2023-07-13T01:54:03;101056.41;;;27.42;86.65
20630;BME280;17386;43.846;25.950;2023-07-13T01:56:30;101054.00;;;27.39;87.15
20630;BME280;17386;43.846;25.950;2023-07-13T01:58:56;101056.19;;;27.35;87.18
20630;BME280;17386;43.846;25.950;2023-07-13T02:01:23;101050.03;;;27.33;87.32
20630;BME280;17386;43.846;25.950;2023-07-13T02:03:49;101052.19;;;27.30;87.67
20630;BME280;17386;43.846;25.950;2023-07-13T02:06:18;101042.06;;;27.22;87.83
20630;BME280;17386;43.846;25.950;2023-07-13T02:08:43;101033.19;;;27.20;87.73
20630;BME280;17386;43.846;25.950;2023-07-13T02:11:10;101059.06;;;27.34;87.94
20630;BME280;17386;43.846;25.950;2023-07-13T02:13:36;101061.63;;;27.35;87.89
20630;BME280;17386;43.846;25.950;2023-07-13T02:16:03;101055.31;;;27.35;87.53
20630;BME280;17386;43.846;25.950;2023-07-13T02:18:29;101057.91;;;27.36;86.85
20630;BME280;17386;43.846;25.950;2023-07-13T02:20:56;101057.72;;;27.38;85.50
20630;BME280;17386;43.846;25.950;2023-07-13T02:23:23;101057.72;;;27.38;85.31
20630;BME280;17386;43.846;25.950;2023-07-13T02:25:54;101057.38;;;27.33;84.95
20630;BME280;17386;43.846;25.950;2023-07-13T02:28:20;101059.97;;;27.24;84.89
20630;BME280;17386;43.846;25.950;2023-07-13T02:30:47;101064.06;;;27.20;84.37
20630;BME280;17386;43.846;25.950;2023-07-13T02:33:14;101064.50;;;27.16;84.65
20630;BME280;17386;43.846;25.950;2023-07-13T02:35:41;101072.06;;;27.22;84.18
20630;BME280;17386;43.846;25.950;2023-07-13T02:38:09;101063.19;;;27.20;83.72
20630;BME280;17386;43.846;25.950;2023-07-13T02:40:36;101056.16;;;27.17;83.75
20630;BME280;17386;43.846;25.950;2023-07-13T02:43:02;101061.50;;;27.19;83.52
20630;BME280;17386;43.846;25.950;2023-07-13T02:45:29;101068.81;;;27.18;83.83
20630;BME280;17386;43.846;25.950;2023-07-13T02:47:55;101061.63;;;27.17;83.81
20630;BME280;17386;43.846;25.950;2023-07-13T02:50:23;101064.84;;;27.13;84.02
20630;BME280;17386;43.846;25.950;2023-07-13T02:52:49;101053.53;;;27.08;84.04
20630;BME280;17386;43.846;25.950;2023-07-13T02:55:16;101060.00;;;27.07;83.93
20630;BME280;17386;43.846;25.950;2023-07-13T02:57:43;101056.41;;;27.06;83.85
20630;BME280;17386;43.846;25.950;2023-07-13T03:00:10;101044.91;;;27.03;84.10
20630;BME280;17386;43.846;25.950;2023-07-13T03:02:37;101052.81;;;27.06;84.28
20630;BME280;17386;43.846;25.950;2023-07-13T03:05:04;101051.22;;;27.03;84.38
20630;BME280;17386;43.846;25.950;2023-07-13T03:07:31;101055.44;;;26.97;84.23
20630;BME280;17386;43.846;25.950;2023-07-13T03:09:58;101060.94;;;26.88;84.70
20630;BME280;17386;43.846;25.950;2023-07-13T03:12:24;101063.22;;;26.92;84.79
20630;BME280;17386;43.846;25.950;2023-07-13T03:14:51;101062.03;;;26.95;84.44
20630;BME280;17386;43.846;25.950;2023-07-13T03:17:18;101044.22;;;27.00;83.89
20630;BME280;17386;43.846;25.950;2023-07-13T03:19:44;101050.34;;;27.03;83.94
20630;BME280;17386;43.846;25.950;2023-07-13T03:22:11;101046.25;;;26.98;83.88
20630;BME280;17386;43.846;25.950;2023-07-13T03:24:38;101050.84;;;26.98;84.28
20630;BME280;17386;43.846;25.950;2023-07-13T03:27:06;101053.69;;;26.96;84.51
20630;BME280;17386;43.846;25.950;2023-07-13T03:29:32;101053.00;;;26.94;84.32
20630;BME280;17386;43.846;25.950;2023-07-13T03:31:58;101050.28;;;26.94;84.31
20630;BME280;17386;43.846;25.950;2023-07-13T03:34:25;101054.00;;;26.93;84.30
20630;BME280;17386;43.846;25.950;2023-07-13T03:36:54;101058.28;;;26.96;84.50
20630;BME280;17386;43.846;25.950;2023-07-13T03:39:21;101050.34;;;27.03;84.07
20630;BME280;17386;43.846;25.950;2023-07-13T03:41:48;101050.09;;;27.06;83.70
20630;BME280;17386;43.846;25.950;2023-07-13T03:44:18;101058.81;;;27.09;84.02
20630;BME280;17386;43.846;25.950;2023-07-13T03:46:45;101040.31;;;27.03;83.84
20630;BME280;17386;43.846;25.950;2023-07-13T03:49:11;101056.25;;;27.08;83.97
20630;BME280;17386;43.846;25.950;2023-07-13T03:51:38;101058.97;;;27.08;84.33
20630;BME280;17386;43.846;25.950;2023-07-13T03:54:05;101065.13;;;27.10;84.38
20630;BME280;17386;43.846;25.950;2023-07-13T03:56:33;101059.81;;;27.08;84.25
20630;BME280;17386;43.846;25.950;2023-07-13T03:59:00;101061.38;;;27.11;84.28
20630;BME280;17386;43.846;25.950;2023-07-13T04:01:26;101063.81;;;27.14;83.75
20630;BME280;17386;43.846;25.950;2023-07-13T04:03:53;101065.22;;;27.18;83.65
20630;BME280;17386;43.846;25.950;2023-07-13T04:06:23;101067.19;;;27.25;83.28
20630;BME280;17386;43.846;25.950;2023-07-13T04:08:52;101059.06;;;27.34;83.12
20630;BME280;17386;43.846;25.950;2023-07-13T04:11:21;101068.63;;;27.38;82.79
20630;BME280;17386;43.846;25.950;2023-07-13T04:13:49;101063.19;;;27.38;82.69
20630;BME280;17386;43.846;25.950;2023-07-13T04:16:17;101069.91;;;27.43;82.31
20630;BME280;17386;43.846;25.950;2023-07-13T04:18:45;101057.59;;;27.39;82.40
20630;BME280;17386;43.846;25.950;2023-07-13T04:21:13;101060.69;;;27.44;82.00
20630;BME280;17386;43.846;25.950;2023-07-13T04:23:40;101070.84;;;27.52;82.12
20630;BME280;17386;43.846;25.950;2023-07-13T04:26:07;101084.69;;;27.59;82.05
20630;BME280;17386;43.846;25.950;2023-07-13T04:28:34;101081.84;;;27.60;81.82
20630;BME280;17386;43.846;25.950;2023-07-13T04:31:01;101088.44;;;27.58;81.94
20630;BME280;17386;43.846;25.950;2023-07-13T04:33:30;101080.25;;;27.58;82.09
20630;BME280;17386;43.846;25.950;2023-07-13T04:35:57;101096.44;;;27.69;81.41
20630;BME280;17386;43.846;25.950;2023-07-13T04:38:27;101084.34;;;27.71;81.33
20630;BME280;17386;43.846;25.950;2023-07-13T04:41:00;101093.09;;;27.75;81.49
20630;BME280;17386;43.846;25.950;2023-07-13T04:43:28;101086.44;;;27.77;81.08
20630;BME280;17386;43.846;25.950;2023-07-13T04:45:56;101103.44;;;27.71;81.67
20630;BME280;17386;43.846;25.950;2023-07-13T04:48:23;101107.41;;;27.59;82.75
20630;BME280;17386;43.846;25.950;2023-07-13T04:50:58;101114.59;;;27.60;82.98
20630;BME280;17386;43.846;25.950;2023-07-13T04:53:26;101109.25;;;27.59;82.85
20630;BME280;17386;43.846;25.950;2023-07-13T04:55:51;101112.72;;;27.61;83.14
20630;BME280;17386;43.846;25.950;2023-07-13T04:58:18;101111.38;;;27.65;83.58
20630;BME280;17386;43.846;25.950;2023-07-13T05:00:45;101099.06;;;27.61;83.64
20630;BME280;17386;43.846;25.950;2023-07-13T05:03:12;101104.53;;;27.61;83.99
20630;BME280;17386;43.846;25.950;2023-07-13T05:05:39;101087.28;;;27.60;84.16
20630;BME280;17386;43.846;25.950;2023-07-13T05:08:06;101086.66;;;27.66;83.92
20630;BME280;17386;43.846;25.950;2023-07-13T05:10:34;101090.88;;;27.78;84.14
20630;BME280;17386;43.846;25.950;2023-07-13T05:13:01;101090.81;;;27.88;83.86
20630;BME280;17386;43.846;25.950;2023-07-13T05:15:29;101097.00;;;27.98;82.97
20630;BME280;17386;43.846;25.950;2023-07-13T05:17:55;101098.19;;;27.96;83.37
20630;BME280;17386;43.846;25.950;2023-07-13T05:20:22;101103.72;;;28.04;83.11
20630;BME280;17386;43.846;25.950;2023-07-13T05:22:47;101101.88;;;28.13;82.71
20630;BME280;17386;43.846;25.950;2023-07-13T05:25:14;101106.88;;;28.17;82.95
20630;BME280;17386;43.846;25.950;2023-07-13T05:27:41;101110.84;;;28.23;82.90
20630;BME280;17386;43.846;25.950;2023-07-13T05:30:08;101112.09;;;28.28;82.88
20630;BME280;17386;43.846;25.950;2023-07-13T05:32:37;101099.59;;;28.26;83.54
20630;BME280;17386;43.846;25.950;2023-07-13T05:35:05;101107.94;;;28.42;83.44
20630;BME280;17386;43.846;25.950;2023-07-13T05:37:32;101107.13;;;28.50;83.78
20630;BME280;17386;43.846;25.950;2023-07-13T05:39:59;101111.41;;;28.52;84.04
20630;BME280;17386;43.846;25.950;2023-07-13T05:42:26;101111.59;;;28.59;84.28
20630;BME280;17386;43.846;25.950;2023-07-13T05:44:52;101115.78;;;28.71;84.41
20630;BME280;17386;43.846;25.950;2023-07-13T05:47:19;101109.69;;;28.85;84.31
20630;BME280;17386;43.846;25.950;2023-07-13T05:49:46;101107.69;;;28.96;84.36
20630;BME280;17386;43.846;25.950;2023-07-13T05:52:12;101104.34;;;29.10;83.60
20630;BME280;17386;43.846;25.950;2023-07-13T05:54:39;101120.25;;;29.23;81.67
20630;BME280;17386;43.846;25.950;2023-07-13T05:57:06;101119.25;;;29.24;80.36
20630;BME280;17386;43.846;25.950;2023-07-13T05:59:32;101113.75;;;29.15;80.43
20630;BME280;17386;43.846;25.950;2023-07-13T06:01:59;101115.16;;;29.28;79.76
20630;BME280;17386;43.846;25.950;2023-07-13T06:04:25;101115.53;;;29.41;79.39
20630;BME280;17386;43.846;25.950;2023-07-13T06:06:52;101119.16;;;29.58;78.01
20630;BME280;17386;43.846;25.950;2023-07-13T06:09:19;101122.25;;;29.63;77.59
20630;BME280;17386;43.846;25.950;2023-07-13T06:11:45;101133.06;;;29.73;76.99
20630;BME280;17386;43.846;25.950;2023-07-13T06:14:12;101132.69;;;29.76;75.95
20630;BME280;17386;43.846;25.950;2023-07-13T06:16:37;101137.84;;;29.87;75.39
20630;BME280;17386;43.846;25.950;2023-07-13T06:19:04;101142.97;;;29.98;73.88
20630;BME280;17386;43.846;25.950;2023-07-13T06:21:30;101137.19;;;30.09;73.05
20630;BME280;17386;43.846;25.950;2023-07-13T06:23:57;101137.53;;;30.14;72.25
20630;BME280;17386;43.846;25.950;2023-07-13T06:26:24;101141.97;;;30.15;73.10
20630;BME280;17386;43.846;25.950;2023-07-13T06:28:52;101135.09;;;30.19;73.07
20630;BME280;17386;43.846;25.950;2023-07-13T06:31:19;101140.59;;;30.19;72.87
20630;BME280;17386;43.846;25.950;2023-07-13T06:33:46;101141.94;;;30.32;72.53
20630;BME280;17386;43.846;25.950;2023-07-13T06:36:12;101136.59;;;30.46;71.05
20630;BME280;17386;43.846;25.950;2023-07-13T06:38:38;101134.34;;;30.58;70.57
20630;BME280;17386;43.846;25.950;2023-07-13T06:41:06;101150.13;;;30.72;69.21
20630;BME280;17386;43.846;25.950;2023-07-13T06:43:34;101134.31;;;30.83;68.64
20630;BME280;17386;43.846;25.950;2023-07-13T06:46:00;101139.06;;;30.97;68.40
20630;BME280;17386;43.846;25.950;2023-07-13T06:48:27;101137.78;;;31.08;68.38
20630;BME280;17386;43.846;25.950;2023-07-13T06:50:53;101134.16;;;31.15;67.72
20630;BME280;17386;43.846;25.950;2023-07-13T06:53:20;101137.44;;;31.11;68.51
20630;BME280;17386;43.846;25.950;2023-07-13T06:55:48;101136.56;;;31.18;68.24
20630;BME280;17386;43.846;25.950;2023-07-13T06:58:16;101119.75;;;31.13;68.09
20630;BME280;17386;43.846;25.950;2023-07-13T07:00:43;101128.13;;;31.20;67.31
20630;BME280;17386;43.846;25.950;2023-07-13T07:03:09;101126.25;;;31.20;68.11
20630;BME280;17386;43.846;25.950;2023-07-13T07:05:35;101136.22;;;31.13;68.15
20630;BME280;17386;43.846;25.950;2023-07-13T07:08:01;101131.72;;;31.28;68.25
20630;BME280;17386;43.846;25.950;2023-07-13T07:10:29;101125.94;;;31.46;67.82
20630;BME280;17386;43.846;25.950;2023-07-13T07:12:55;101128.75;;;31.61;66.75
20630;BME280;17386;43.846;25.950;2023-07-13T07:15:20;101122.94;;;31.56;66.44
20630;BME280;17386;43.846;25.950;2023-07-13T07:17:47;101126.00;;;31.61;66.22
20630;BME280;17386;43.846;25.950;2023-07-13T07:20:13;101131.63;;;31.68;66.51
20630;BME280;17386;43.846;25.950;2023-07-13T07:22:39;101129.34;;;31.79;65.62
20630;BME280;17386;43.846;25.950;2023-07-13T07:25:06;101118.09;;;31.89;65.46
20630;BME280;17386;43.846;25.950;2023-07-13T07:27:33;101122.50;;;31.98;64.66
20630;BME280;17386;43.846;25.950;2023-07-13T07:29:59;101125.16;;;32.06;64.60
20630;BME280;17386;43.846;25.950;2023-07-13T07:32:28;101119.16;;;32.03;64.96
20630;BME280;17386;43.846;25.950;2023-07-13T07:34:56;101120.97;;;32.10;64.33
20630;BME280;17386;43.846;25.950;2023-07-13T07:37:23;101105.94;;;32.21;63.49
20630;BME280;17386;43.846;25.950;2023-07-13T07:39:49;101110.59;;;32.21;62.65
20630;BME280;17386;43.846;25.950;2023-07-13T07:42:15;101108.81;;;32.28;62.11
20630;BME280;17386;43.846;25.950;2023-07-13T07:44:42;101117.75;;;32.45;62.97
20630;BME280;17386;43.846;25.950;2023-07-13T07:47:09;101119.66;;;32.59;63.21
20630;BME280;17386;43.846;25.950;2023-07-13T07:49:36;101121.81;;;32.78;62.32
20630;BME280;17386;43.846;25.950;2023-07-13T07:52:03;101109.97;;;32.92;61.36
20630;BME280;17386;43.846;25.950;2023-07-13T07:54:30;101110.16;;;33.06;62.65
20630;BME280;17386;43.846;25.950;2023-07-13T07:56:57;101121.53;;;33.17;61.68
20630;BME280;17386;43.846;25.950;2023-07-13T07:59:23;101120.63;;;33.32;60.79
20630;BME280;17386;43.846;25.950;2023-07-13T08:01:49;101120.16;;;33.43;61.39
20630;BME280;17386;43.846;25.950;2023-07-13T08:04:16;101110.72;;;33.52;60.95
20630;BME280;17386;43.846;25.950;2023-07-13T08:06:42;101115.88;;;33.62;60.81
20630;BME280;17386;43.846;25.950;2023-07-13T08:09:08;101118.13;;;33.73;59.91
20630;BME280;17386;43.846;25.950;2023-07-13T08:11:35;101117.59;;;33.63;59.37
20630;BME280;17386;43.846;25.950;2023-07-13T08:14:02;101122.06;;;33.64;58.57
20630;BME280;17386;43.846;25.950;2023-07-13T08:16:28;101126.59;;;33.71;59.02
20630;BME280;17386;43.846;25.950;2023-07-13T08:18:55;101128.81;;;33.83;58.15
20630;BME280;17386;43.846;25.950;2023-07-13T08:21:22;101124.50;;;33.95;57.60
20630;BME280;17386;43.846;25.950;2023-07-13T08:23:49;101121.81;;;34.01;57.40
20630;BME280;17386;43.846;25.950;2023-07-13T08:26:15;101117.66;;;34.12;56.75
20630;BME280;17386;43.846;25.950;2023-07-13T08:28:43;101115.38;;;34.22;57.18
20630;BME280;17386;43.846;25.950;2023-07-13T08:31:10;101125.47;;;34.37;56.92
20630;BME280;17386;43.846;25.950;2023-07-13T08:33:37;101124.31;;;34.46;56.50
20630;BME280;17386;43.846;25.950;2023-07-13T08:36:04;101120.31;;;34.55;55.28
20630;BME280;17386;43.846;25.950;2023-07-13T08:38:31;101123.13;;;34.62;55.35
20630;BME280;17386;43.846;25.950;2023-07-13T08:40:58;101115.72;;;34.69;54.36
20630;BME280;17386;43.846;25.950;2023-07-13T08:43:35;101122.09;;;34.69;54.30
20630;BME280;17386;43.846;25.950;2023-07-13T08:49:16;101113.84;;;34.76;53.97
20630;BME280;17386;43.846;25.950;2023-07-13T08:52:12;101105.00;;;34.87;53.95
20630;BME280;17386;43.846;25.950;2023-07-13T08:54:49;101110.66;;;34.79;52.70
20630;BME280;17386;43.846;25.950;2023-07-13T08:57:24;101107.06;;;34.78;52.98
20630;BME280;17386;43.846;25.950;2023-07-13T08:59:55;101093.34;;;34.92;53.68
20630;BME280;17386;43.846;25.950;2023-07-13T09:05:24;101098.53;;;35.08;52.44
20630;BME280;17386;43.846;25.950;2023-07-13T09:16:42;101074.00;;;35.53;49.00
20630;BME280;17386;43.846;25.950;2023-07-13T09:19:23;101082.75;;;35.56;49.29
20630;BME280;17386;43.846;25.950;2023-07-13T09:21:57;101075.72;;;35.54;49.37
20630;BME280;17386;43.846;25.950;2023-07-13T09:24:35;101084.22;;;35.66;48.74
20630;BME280;17386;43.846;25.950;2023-07-13T09:27:26;101085.09;;;35.73;48.77
20630;BME280;17386;43.846;25.950;2023-07-13T09:30:21;101088.69;;;35.67;47.97
20630;BME280;17386;43.846;25.950;2023-07-13T09:32:53;101090.63;;;35.73;48.37
20630;BME280;17386;43.846;25.950;2023-07-13T09:35:23;101097.63;;;35.62;48.76
20630;BME280;17386;43.846;25.950;2023-07-13T09:37:51;101101.69;;;35.79;48.51
20630;BME280;17386;43.846;25.950;2023-07-13T09:44:15;101092.56;;;36.19;46.57
20630;BME280;17386;43.846;25.950;2023-07-13T09:46:54;101094.63;;;36.36;47.05
20630;BME280;17386;43.846;25.950;2023-07-13T09:49:27;101105.91;;;36.55;46.65
20630;BME280;17386;43.846;25.950;2023-07-13T09:52:04;101084.44;;;36.43;46.79
20630;BME280;17386;43.846;25.950;2023-07-13T09:54:34;101093.56;;;36.57;46.21
20630;BME280;17386;43.846;25.950;2023-07-13T09:57:08;101087.94;;;36.77;44.20
20630;BME280;17386;43.846;25.950;2023-07-13T09:59:47;101071.91;;;36.99;43.96
20630;BME280;17386;43.846;25.950;2023-07-13T10:02:32;101073.06;;;37.23;42.89
20630;BME280;17386;43.846;25.950;2023-07-13T10:05:13;101075.13;;;37.41;42.63
20630;BME280;17386;43.846;25.950;2023-07-13T10:07:45;101070.06;;;37.63;41.72
20630;BME280;17386;43.846;25.950;2023-07-13T10:10:22;101075.81;;;37.93;41.47
20630;BME280;17386;43.846;25.950;2023-07-13T10:12:50;101064.19;;;38.27;41.05
20630;BME280;17386;43.846;25.950;2023-07-13T10:15:22;101074.38;;;38.70;38.74
20630;BME280;17386;43.846;25.950;2023-07-13T10:17:51;101083.88;;;39.29;36.92
20630;BME280;17386;43.846;25.950;2023-07-13T10:20:18;101064.22;;;39.84;35.34
20630;BME280;17386;43.846;25.950;2023-07-13T10:23:13;101061.97;;;40.16;35.29
20630;BME280;17386;43.846;25.950;2023-07-13T10:25:43;101061.56;;;40.48;34.68
20630;BME280;17386;43.846;25.950;2023-07-13T10:30:55;59141.97;;;-143.98;100.00
20630;BME280;17386;43.846;25.950;2023-07-13T10:33:25;59141.97;;;-143.98;100.00
20630;BME280;17386;43.846;25.950;2023-07-13T10:36:11;101070.50;;;41.31;33.62
20630;BME280;17386;43.846;25.950;2023-07-13T10:38:39;101060.84;;;42.34;30.54
20630;BME280;17386;43.846;25.950;2023-07-13T10:41:12;101051.84;;;42.49;30.26
20630;BME280;17386;43.846;25.950;2023-07-13T10:43:50;59141.97;;;-143.98;100.00
20630;BME280;17386;43.846;25.950;2023-07-13T10:46:19;59141.97;;;-143.98;100.00
20630;BME280;17386;43.846;25.950;2023-07-13T10:48:51;59141.97;;;-143.98;100.00
20630;BME280;17386;43.846;25.950;2023-07-13T10:51:22;59141.97;;;-143.98;100.00
20630;BME280;17386;43.846;25.950;2023-07-13T10:54:17;59141.97;;;-143.98;100.00
20630;BME280;17386;43.846;25.950;2023-07-13T10:56:43;59141.97;;;-143.98;100.00
20630;BME280;17386;43.846;25.950;2023-07-13T10:59:16;59141.97;;;-143.98;100.00
20630;BME280;17386;43.846;25.950;2023-07-13T11:02:35;59141.97;;;-143.98;100.00
20630;BME280;17386;43.846;25.950;2023-07-13T11:04:44;59141.97;;;-143.98;100.00
20630;BME280;17386;43.846;25.950;2023-07-13T11:07:33;59141.97;;;-143.98;100.00
20630;BME280;17386;43.846;25.950;2023-07-13T11:21:15;59141.97;;;-143.98;100.00
20630;BME280;17386;43.846;25.950;2023-07-13T11:23:43;59141.97;;;-143.98;100.00
20630;BME280;17386;43.846;25.950;2023-07-13T11:26:43;59141.97;;;-143.98;100.00
20630;BME280;17386;43.846;25.950;2023-07-13T11:31:55;59141.97;;;-143.98;100.00
20630;BME280;17386;43.846;25.950;2023-07-13T11:34:35;59141.97;;;-143.98;100.00
20630;BME280;17386;43.846;25.950;2023-07-13T11:37:02;59141.97;;;-143.98;100.00
20630;BME280;17386;43.846;25.950;2023-07-13T11:39:35;59141.97;;;-143.98;100.00
20630;BME280;17386;43.846;25.950;2023-07-13T11:42:07;59141.97;;;-143.98;100.00
20630;BME280;17386;43.846;25.950;2023-07-13T11:44:44;59141.97;;;-143.98;100.00
20630;BME280;17386;43.846;25.950;2023-07-13T11:47:17;100936.75;;;40.85;nan
20630;BME280;17386;43.846;25.950;2023-07-13T11:49:50;100941.47;;;40.16;nan
20630;BME280;17386;43.846;25.950;2023-07-13T11:52:33;100936.75;;;40.05;nan
20630;BME280;17386;43.846;25.950;2023-07-13T11:55:14;100945.94;;;39.93;nan
20630;BME280;17386;43.846;25.950;2023-07-13T11:57:45;100933.75;;;39.83;nan
20630;BME280;17386;43.846;25.950;2023-07-13T12:00:23;100936.28;;;39.73;nan
20630;BME280;17386;43.846;25.950;2023-07-13T12:02:56;100931.69;;;39.55;nan
20630;BME280;17386;43.846;25.950;2023-07-13T12:05:24;100920.53;;;39.43;nan
20630;BME280;17386;43.846;25.950;2023-07-13T12:07:53;100924.91;;;38.85;nan
20630;BME280;17386;43.846;25.950;2023-07-13T12:10:30;100924.56;;;38.94;nan
20630;BME280;17386;43.846;25.950;2023-07-13T12:13:01;100920.81;;;39.00;nan
20630;BME280;17386;43.846;25.950;2023-07-13T12:15:40;100929.03;;;38.95;nan
20630;BME280;17386;43.846;25.950;2023-07-13T12:18:20;100929.97;;;38.89;nan
20630;BME280;17386;43.846;25.950;2023-07-13T12:20:51;100931.19;;;38.93;nan
20630;BME280;17386;43.846;25.950;2023-07-13T12:23:29;100923.81;;;38.87;nan
20630;BME280;17386;43.846;25.950;2023-07-13T12:25:58;100926.94;;;38.90;nan
20630;BME280;17386;43.846;25.950;2023-07-13T12:28:39;100926.59;;;38.87;nan
20630;BME280;17386;43.846;25.950;2023-07-13T12:31:37;100912.47;;;38.70;nan
20630;BME280;17386;43.846;25.950;2023-07-13T12:34:20;100913.25;;;38.77;nan
20630;BME280;17386;43.846;25.950;2023-07-13T12:36:50;100905.47;;;38.85;nan
20630;BME280;17386;43.846;25.950;2023-07-13T12:39:24;100915.13;;;38.95;nan
20630;BME280;17386;43.846;25.950;2023-07-13T12:42:16;100915.13;;;38.95;nan
20630;BME280;17386;43.846;25.950;2023-07-13T12:44:48;100912.91;;;38.73;nan
20630;BME280;17386;43.846;25.950;2023-07-13T12:47:15;100913.41;;;38.64;nan
20630;BME280;17386;43.846;25.950;2023-07-13T12:49:48;100912.06;;;38.73;nan
20630;BME280;17386;43.846;25.950;2023-07-13T12:52:18;100910.72;;;38.75;nan
20630;BME280;17386;43.846;25.950;2023-07-13T12:55:07;100912.91;;;38.73;nan
20630;BME280;17386;43.846;25.950;2023-07-13T12:57:59;100907.00;;;38.81;nan
20630;BME280;17386;43.846;25.950;2023-07-13T13:00:33;100910.75;;;38.87;nan
20630;BME280;17386;43.846;25.950;2023-07-13T13:03:20;100893.16;;;38.93;nan
20630;BME280;17386;43.846;25.950;2023-07-13T13:05:48;100895.69;;;38.95;nan
20630;BME280;17386;43.846;25.950;2023-07-13T13:08:14;100896.28;;;38.97;nan
20630;BME280;17386;43.846;25.950;2023-07-13T13:10:41;100901.50;;;38.93;nan
20630;BME280;17386;43.846;25.950;2023-07-13T13:13:06;100897.13;;;38.97;nan
20630;BME280;17386;43.846;25.950;2023-07-13T13:15:32;100889.59;;;38.74;nan
20630;BME280;17386;43.846;25.950;2023-07-13T13:17:58;100888.06;;;38.78;nan
20630;BME280;17386;43.846;25.950;2023-07-13T13:20:24;100892.31;;;38.93;nan
20630;BME280;17386;43.846;25.950;2023-07-13T13:22:51;100890.72;;;38.97;nan
20630;BME280;17386;43.846;25.950;2023-07-13T13:25:18;100892.78;;;38.90;nan
20630;BME280;17386;43.846;25.950;2023-07-13T13:27:45;100886.03;;;38.97;nan
20630;BME280;17386;43.846;25.950;2023-07-13T13:30:13;100886.13;;;38.91;nan